sensor_id;sensor_type;location;lat;lon;timestamp;pressure;altitude;pressure_sealevel;temperature;humidity
75609;BME280;64194;51.044;13.780;2022-10-16T00:00:55;100098.16;;;14.85;82.75
75609;BME280;64194;51.044;13.780;2022-10-16T00:04:57;100100.63;;;14.77;83.61
75609;BME280;64194;51.044;13.780;2022-10-16T00:08:58;100100.13;;;14.83;83.44
75609;BME280;64194;51.044;13.780;2022-10-16T00:13:00;100099.97;;;14.84;83.29
75609;BME280;64194;51.044;13.780;2022-10-16T00:17:02;100106.56;;;14.80;83.60
75609;BME280;64194;51.044;13.780;2022-10-16T00:21:06;100112.16;;;14.88;83.23
75609;BME280;64194;51.044;13.780;2022-10-16T00:25:08;100118.19;;;14.90;83.16
75609;BME280;64194;51.044;13.780;2022-10-16T00:29:10;100116.75;;;14.86;83.47
75609;BME280;64194;51.044;13.780;2022-10-16T00:33:12;100124.41;;;14.91;83.41
75609;BME280;64194;51.044;13.780;2022-10-16T00:37:13;100120.03;;;14.90;83.27
75609;BME280;64194;51.044;13.780;2022-10-16T00:41:17;100119.78;;;14.93;83.46
75609;BME280;64194;51.044;13.780;2022-10-16T00:45:18;100123.16;;;14.95;83.14
75609;BME280;64194;51.044;13.780;2022-10-16T00:49:20;100133.03;;;14.94;83.03
75609;BME280;64194;51.044;13.780;2022-10-16T00:53:23;100128.03;;;14.90;83.07
75609;BME280;64194;51.044;13.780;2022-10-16T00:57:26;100138.41;;;14.83;83.60
75609;BME280;64194;51.044;13.780;2022-10-16T01:01:28;100141.09;;;14.83;83.34
75609;BME280;64194;51.044;13.780;2022-10-16T01:05:44;100140.22;;;14.83;83.21
75609;BME280;64194;51.044;13.780;2022-10-16T01:10:20;100137.41;;;14.84;83.45
75609;BME280;64194;51.044;13.780;2022-10-16T01:24:07;100131.19;;;14.95;82.93
75609;BME280;64194;51.044;13.780;2022-10-16T01:28:11;100142.72;;;14.95;83.16
75609;BME280;64194;51.044;13.780;2022-10-16T01:32:25;100146.88;;;14.99;83.04
75609;BME280;64194;51.044;13.780;2022-10-16T01:36:41;100153.91;;;15.00;82.66
75609;BME280;64194;51.044;13.780;2022-10-16T01:40:46;100159.44;;;15.20;82.04
75609;BME280;64194;51.044;13.780;2022-10-16T01:44:52;100156.53;;;15.12;82.30
75609;BME280;64194;51.044;13.780;2022-10-16T01:48:55;100161.16;;;15.21;82.19
75609;BME280;64194;51.044;13.780;2022-10-16T01:52:57;100157.50;;;15.22;81.86
75609;BME280;64194;51.044;13.780;2022-10-16T01:57:01;100151.88;;;15.25;81.84
75609;BME280;64194;51.044;13.780;2022-10-16T02:01:04;100158.00;;;15.16;81.93
75609;BME280;64194;51.044;13.780;2022-10-16T02:05:22;100161.44;;;14.95;82.53
75609;BME280;64194;51.044;13.780;2022-10-16T02:09:26;100166.31;;;15.01;82.60
75609;BME280;64194;51.044;13.780;2022-10-16T02:13:45;100158.38;;;15.11;82.25
75609;BME280;64194;51.044;13.780;2022-10-16T02:17:47;100156.97;;;15.28;81.78
75609;BME280;64194;51.044;13.780;2022-10-16T02:21:53;100165.78;;;15.19;82.04
75609;BME280;64194;51.044;13.780;2022-10-16T02:25:56;100167.94;;;15.25;81.94
75609;BME280;64194;51.044;13.780;2022-10-16T02:30:12;100169.16;;;15.32;81.50
75609;BME280;64194;51.044;13.780;2022-10-16T02:34:16;100164.38;;;15.35;81.52
75609;BME280;64194;51.044;13.780;2022-10-16T02:38:21;100161.31;;;15.40;81.15
75609;BME280;64194;51.044;13.780;2022-10-16T02:42:28;100161.06;;;15.43;81.34
75609;BME280;64194;51.044;13.780;2022-10-16T02:46:31;100168.09;;;15.44;81.17
75609;BME280;64194;51.044;13.780;2022-10-16T02:50:32;100173.22;;;15.47;81.11
75609;BME280;64194;51.044;13.780;2022-10-16T02:54:34;100156.31;;;15.46;81.27
75609;BME280;64194;51.044;13.780;2022-10-16T02:58:35;100157.25;;;15.57;80.98
75609;BME280;64194;51.044;13.780;2022-10-16T03:02:37;100154.47;;;15.58;80.90
75609;BME280;64194;51.044;13.780;2022-10-16T03:06:38;100151.31;;;15.53;81.09
75609;BME280;64194;51.044;13.780;2022-10-16T03:10:40;100150.00;;;15.68;80.59
75609;BME280;64194;51.044;13.780;2022-10-16T03:14:42;100156.41;;;15.56;80.82
75609;BME280;64194;51.044;13.780;2022-10-16T03:18:47;100163.84;;;15.53;81.12
75609;BME280;64194;51.044;13.780;2022-10-16T03:22:49;100170.75;;;15.55;80.86
75609;BME280;64194;51.044;13.780;2022-10-16T03:26:51;100171.88;;;15.53;80.79
75609;BME280;64194;51.044;13.780;2022-10-16T03:30:52;100185.47;;;15.49;80.96
75609;BME280;64194;51.044;13.780;2022-10-16T03:34:54;100176.00;;;15.45;81.33
75609;BME280;64194;51.044;13.780;2022-10-16T03:38:57;100174.91;;;15.48;81.58
75609;BME280;64194;51.044;13.780;2022-10-16T03:42:59;100182.47;;;15.43;81.33
75609;BME280;64194;51.044;13.780;2022-10-16T03:47:00;100178.81;;;15.44;81.92
75609;BME280;64194;51.044;13.780;2022-10-16T03:51:02;100187.56;;;15.46;81.37
75609;BME280;64194;51.044;13.780;2022-10-16T03:55:04;100194.16;;;15.42;81.50
75609;BME280;64194;51.044;13.780;2022-10-16T03:59:06;100192.44;;;15.41;81.70
75609;BME280;64194;51.044;13.780;2022-10-16T04:03:08;100195.41;;;15.38;81.57
75609;BME280;64194;51.044;13.780;2022-10-16T04:07:09;100197.94;;;15.39;81.75
75609;BME280;64194;51.044;13.780;2022-10-16T04:11:11;100204.00;;;15.41;81.70
75609;BME280;64194;51.044;13.780;2022-10-16T04:15:13;100206.09;;;15.38;81.79
75609;BME280;64194;51.044;13.780;2022-10-16T04:19:14;100214.94;;;15.38;81.85
75609;BME280;64194;51.044;13.780;2022-10-16T04:23:16;100218.47;;;15.39;81.74
75609;BME280;64194;51.044;13.780;2022-10-16T04:27:17;100227.16;;;15.31;82.38
75609;BME280;64194;51.044;13.780;2022-10-16T04:31:19;100223.97;;;15.37;81.88
75609;BME280;64194;51.044;13.780;2022-10-16T04:35:21;100208.28;;;15.33;82.09
75609;BME280;64194;51.044;13.780;2022-10-16T04:39:24;100216.69;;;15.28;82.23
75609;BME280;64194;51.044;13.780;2022-10-16T04:43:25;100222.69;;;15.21;82.50
75609;BME280;64194;51.044;13.780;2022-10-16T04:47:27;100229.25;;;15.17;82.73
75609;BME280;64194;51.044;13.780;2022-10-16T04:51:29;100229.03;;;15.08;83.15
75609;BME280;64194;51.044;13.780;2022-10-16T04:55:31;100232.91;;;15.16;82.68
75609;BME280;64194;51.044;13.780;2022-10-16T04:59:33;100222.94;;;15.06;83.02
75609;BME280;64194;51.044;13.780;2022-10-16T05:03:34;100208.38;;;15.11;82.68
75609;BME280;64194;51.044;13.780;2022-10-16T05:07:36;100222.44;;;15.13;83.06
75609;BME280;64194;51.044;13.780;2022-10-16T05:11:37;100223.78;;;15.18;82.25
75609;BME280;64194;51.044;13.780;2022-10-16T05:15:39;100225.97;;;15.13;82.52
75609;BME280;64194;51.044;13.780;2022-10-16T05:19:41;100224.63;;;15.19;82.57
75609;BME280;64194;51.044;13.780;2022-10-16T05:23:43;100223.31;;;15.13;82.71
75609;BME280;64194;51.044;13.780;2022-10-16T05:27:48;100237.78;;;15.11;82.73
75609;BME280;64194;51.044;13.780;2022-10-16T05:31:51;100234.63;;;15.05;82.85
75609;BME280;64194;51.044;13.780;2022-10-16T05:35:53;100237.91;;;15.09;82.67
75609;BME280;64194;51.044;13.780;2022-10-16T05:39:55;100244.81;;;15.12;82.58
75609;BME280;64194;51.044;13.780;2022-10-16T05:43:56;100240.22;;;15.14;82.76
75609;BME280;64194;51.044;13.780;2022-10-16T05:47:59;100246.88;;;15.19;82.49
75609;BME280;64194;51.044;13.780;2022-10-16T05:52:01;100254.66;;;15.11;82.75
75609;BME280;64194;51.044;13.780;2022-10-16T05:56:04;100267.22;;;15.11;82.76
75609;BME280;64194;51.044;13.780;2022-10-16T06:00:07;100279.59;;;15.12;82.82
75609;BME280;64194;51.044;13.780;2022-10-16T06:04:12;100277.38;;;15.28;82.13
75609;BME280;64194;51.044;13.780;2022-10-16T06:08:14;100279.31;;;15.37;82.07
75609;BME280;64194;51.044;13.780;2022-10-16T06:12:16;100285.75;;;15.45;81.40
75609;BME280;64194;51.044;13.780;2022-10-16T06:16:18;100285.34;;;15.50;81.23
75609;BME280;64194;51.044;13.780;2022-10-16T06:20:19;100304.88;;;15.52;81.27
75609;BME280;64194;51.044;13.780;2022-10-16T06:24:21;100304.84;;;15.63;81.25
75609;BME280;64194;51.044;13.780;2022-10-16T06:28:25;100312.53;;;15.88;80.20
75609;BME280;64194;51.044;13.780;2022-10-16T06:32:27;100320.75;;;16.08;79.23
75609;BME280;64194;51.044;13.780;2022-10-16T06:36:28;100315.13;;;16.11;79.24
75609;BME280;64194;51.044;13.780;2022-10-16T06:40:30;100325.38;;;16.06;79.64
75609;BME280;64194;51.044;13.780;2022-10-16T06:44:32;100319.44;;;16.23;79.03
75609;BME280;64194;51.044;13.780;2022-10-16T06:48:33;100328.28;;;16.55;78.19
75609;BME280;64194;51.044;13.780;2022-10-16T06:52:35;100334.00;;;16.62;77.56
75609;BME280;64194;51.044;13.780;2022-10-16T06:56:37;100337.88;;;16.99;76.68
75609;BME280;64194;51.044;13.780;2022-10-16T07:00:39;100342.75;;;17.15;76.03
75609;BME280;64194;51.044;13.780;2022-10-16T07:04:41;100356.53;;;17.01;76.58
75609;BME280;64194;51.044;13.780;2022-10-16T07:08:44;100356.28;;;17.13;75.92
75609;BME280;64194;51.044;13.780;2022-10-16T07:12:46;100362.22;;;16.87;76.88
75609;BME280;64194;51.044;13.780;2022-10-16T07:16:48;100353.56;;;17.04;76.41
75609;BME280;64194;51.044;13.780;2022-10-16T07:20:49;100359.72;;;17.15;76.35
75609;BME280;64194;51.044;13.780;2022-10-16T07:24:51;100368.13;;;17.41;75.47
75609;BME280;64194;51.044;13.780;2022-10-16T07:28:54;100381.75;;;17.49;75.22
75609;BME280;64194;51.044;13.780;2022-10-16T07:32:56;100395.47;;;17.56;75.12
75609;BME280;64194;51.044;13.780;2022-10-16T07:36:57;100407.78;;;17.58;74.70
75609;BME280;64194;51.044;13.780;2022-10-16T07:41:01;100420.59;;;17.45;75.36
75609;BME280;64194;51.044;13.780;2022-10-16T07:45:04;100416.53;;;17.51;75.40
75609;BME280;64194;51.044;13.780;2022-10-16T07:49:06;100418.00;;;17.65;74.87
75609;BME280;64194;51.044;13.780;2022-10-16T07:53:07;100424.97;;;17.77;74.21
75609;BME280;64194;51.044;13.780;2022-10-16T07:57:09;100422.72;;;17.82;74.62
75609;BME280;64194;51.044;13.780;2022-10-16T08:01:13;100426.31;;;18.11;73.64
75609;BME280;64194;51.044;13.780;2022-10-16T08:05:16;100433.13;;;18.34;72.38
75609;BME280;64194;51.044;13.780;2022-10-16T08:09:18;100426.22;;;18.42;72.35
75609;BME280;64194;51.044;13.780;2022-10-16T08:13:20;100394.50;;;18.84;70.86
75609;BME280;64194;51.044;13.780;2022-10-16T08:17:22;100400.41;;;19.06;69.90
75609;BME280;64194;51.044;13.780;2022-10-16T08:21:24;100417.41;;;19.07;69.40
75609;BME280;64194;51.044;13.780;2022-10-16T08:25:26;100414.59;;;18.89;70.52
75609;BME280;64194;51.044;13.780;2022-10-16T08:29:28;100414.97;;;19.13;69.34
75609;BME280;64194;51.044;13.780;2022-10-16T08:33:30;100410.31;;;19.43;68.17
75609;BME280;64194;51.044;13.780;2022-10-16T08:37:32;100412.63;;;20.20;65.85
75609;BME280;64194;51.044;13.780;2022-10-16T08:46:19;100427.34;;;20.78;63.36
75609;BME280;64194;51.044;13.780;2022-10-16T08:50:28;100431.22;;;20.94;62.26
75609;BME280;64194;51.044;13.780;2022-10-16T08:54:53;100430.47;;;21.27;61.49
75609;BME280;64194;51.044;13.780;2022-10-16T08:58:58;100427.81;;;23.57;55.84
75609;BME280;64194;51.044;13.780;2022-10-16T09:11:21;100413.13;;;26.36;47.67
75609;BME280;64194;51.044;13.780;2022-10-16T09:19:40;100413.44;;;26.69;46.71
75609;BME280;64194;51.044;13.780;2022-10-16T09:23:45;100417.66;;;27.83;43.59
75609;BME280;64194;51.044;13.780;2022-10-16T09:27:48;100432.75;;;30.04;39.14
75609;BME280;64194;51.044;13.780;2022-10-16T09:31:50;100431.78;;;28.54;41.23
75609;BME280;64194;51.044;13.780;2022-10-16T09:35:54;100436.00;;;27.55;43.97
75609;BME280;64194;51.044;13.780;2022-10-16T09:39:57;100435.25;;;26.12;46.47
75609;BME280;64194;51.044;13.780;2022-10-16T09:44:03;100444.84;;;25.93;47.90
75609;BME280;64194;51.044;13.780;2022-10-16T09:48:13;100446.34;;;25.81;47.38
75609;BME280;64194;51.044;13.780;2022-10-16T09:52:15;100446.84;;;25.18;49.32
75609;BME280;64194;51.044;13.780;2022-10-16T09:56:24;100444.75;;;25.05;50.00
75609;BME280;64194;51.044;13.780;2022-10-16T10:00:25;100451.28;;;25.48;49.16
75609;BME280;64194;51.044;13.780;2022-10-16T10:04:40;100441.53;;;26.70;45.80
75609;BME280;64194;51.044;13.780;2022-10-16T10:09:16;100454.81;;;28.18;42.86
75609;BME280;64194;51.044;13.780;2022-10-16T10:13:21;100448.31;;;27.23;44.17
75609;BME280;64194;51.044;13.780;2022-10-16T10:17:24;100457.50;;;26.73;45.33
75609;BME280;64194;51.044;13.780;2022-10-16T10:21:27;100462.81;;;26.59;45.13
75609;BME280;64194;51.044;13.780;2022-10-16T10:29:51;100473.00;;;25.71;47.63
75609;BME280;64194;51.044;13.780;2022-10-16T10:34:32;100465.03;;;27.13;44.00
75609;BME280;64194;51.044;13.780;2022-10-16T10:38:57;100483.91;;;25.86;46.96
75609;BME280;64194;51.044;13.780;2022-10-16T10:43:10;100478.34;;;25.79;48.03
75609;BME280;64194;51.044;13.780;2022-10-16T11:00:40;100493.50;;;27.53;42.50
75609;BME280;64194;51.044;13.780;2022-10-16T11:04:56;100481.16;;;25.56;46.25
75609;BME280;64194;51.044;13.780;2022-10-16T11:09:10;100489.53;;;25.84;45.49
75609;BME280;64194;51.044;13.780;2022-10-16T11:17:34;100481.44;;;27.20;43.45
75609;BME280;64194;51.044;13.780;2022-10-16T11:21:45;100489.34;;;27.64;40.75
75609;BME280;64194;51.044;13.780;2022-10-16T11:25:54;100480.44;;;28.78;39.54
75609;BME280;64194;51.044;13.780;2022-10-16T11:30:00;100489.81;;;30.14;36.13
75609;BME280;64194;51.044;13.780;2022-10-16T11:38:30;100474.50;;;26.96;41.70
75609;BME280;64194;51.044;13.780;2022-10-16T11:42:40;100481.09;;;27.29;41.15
75609;BME280;64194;51.044;13.780;2022-10-16T11:46:50;100491.84;;;26.02;44.43
75609;BME280;64194;51.044;13.780;2022-10-16T11:51:25;100487.69;;;26.35;43.50
75609;BME280;64194;51.044;13.780;2022-10-16T11:55:36;100494.88;;;27.21;41.92
75609;BME280;64194;51.044;13.780;2022-10-16T11:59:49;100495.66;;;31.00;34.51
75609;BME280;64194;51.044;13.780;2022-10-16T12:03:59;100498.09;;;29.74;38.09
75609;BME280;64194;51.044;13.780;2022-10-16T12:08:11;100491.28;;;26.93;41.51
75609;BME280;64194;51.044;13.780;2022-10-16T12:12:27;100489.03;;;26.82;42.17
75609;BME280;64194;51.044;13.780;2022-10-16T12:17:00;100494.56;;;29.28;37.23
75609;BME280;64194;51.044;13.780;2022-10-16T12:21:02;100502.00;;;28.60;38.68
75609;BME280;64194;51.044;13.780;2022-10-16T12:25:27;100491.44;;;27.62;40.39
75609;BME280;64194;51.044;13.780;2022-10-16T12:29:40;100498.56;;;26.71;42.40
75609;BME280;64194;51.044;13.780;2022-10-16T12:34:02;100500.41;;;25.84;44.39
75609;BME280;64194;51.044;13.780;2022-10-16T12:38:17;100509.13;;;25.42;45.73
75609;BME280;64194;51.044;13.780;2022-10-16T12:42:32;100505.97;;;25.16;46.38
75609;BME280;64194;51.044;13.780;2022-10-16T12:46:37;100509.97;;;25.28;45.87
75609;BME280;64194;51.044;13.780;2022-10-16T12:50:39;100518.59;;;26.13;44.63
75609;BME280;64194;51.044;13.780;2022-10-16T12:54:42;100516.00;;;26.55;43.94
75609;BME280;64194;51.044;13.780;2022-10-16T12:58:54;100518.69;;;30.16;36.45
75609;BME280;64194;51.044;13.780;2022-10-16T13:20:18;100506.38;;;25.27;45.29
75609;BME280;64194;51.044;13.780;2022-10-16T13:28:52;100522.66;;;25.13;46.17
75609;BME280;64194;51.044;13.780;2022-10-16T13:33:00;100517.00;;;25.37;45.57
75609;BME280;64194;51.044;13.780;2022-10-16T13:37:02;100514.09;;;25.01;46.76
75609;BME280;64194;51.044;13.780;2022-10-16T13:41:11;100516.72;;;24.64;48.05
75609;BME280;64194;51.044;13.780;2022-10-16T13:45:23;100518.47;;;24.26;49.05
75609;BME280;64194;51.044;13.780;2022-10-16T13:49:27;100520.00;;;24.12;50.21
75609;BME280;64194;51.044;13.780;2022-10-16T13:53:33;100520.31;;;23.78;55.21
75609;BME280;64194;51.044;13.780;2022-10-16T13:57:35;100537.63;;;23.45;58.79
75609;BME280;64194;51.044;13.780;2022-10-16T14:01:41;100531.34;;;24.85;55.45
75609;BME280;64194;51.044;13.780;2022-10-16T14:05:55;100543.97;;;25.24;54.55
75609;BME280;64194;51.044;13.780;2022-10-16T14:10:02;100544.47;;;25.05;55.08
75609;BME280;64194;51.044;13.780;2022-10-16T14:14:10;100550.88;;;24.58;55.96
75609;BME280;64194;51.044;13.780;2022-10-16T14:18:19;100550.50;;;24.22;58.72
75609;BME280;64194;51.044;13.780;2022-10-16T14:22:39;100558.25;;;23.94;59.50
75609;BME280;64194;51.044;13.780;2022-10-16T14:26:44;100551.06;;;24.01;59.65
75609;BME280;64194;51.044;13.780;2022-10-16T14:30:54;100548.03;;;24.04;60.27
75609;BME280;64194;51.044;13.780;2022-10-16T14:34:56;100544.84;;;23.85;62.06
75609;BME280;64194;51.044;13.780;2022-10-16T14:39:02;100551.69;;;23.72;62.23
75609;BME280;64194;51.044;13.780;2022-10-16T14:43:04;100549.00;;;23.56;64.13
75609;BME280;64194;51.044;13.780;2022-10-16T14:47:09;100545.09;;;23.34;64.43
75609;BME280;64194;51.044;13.780;2022-10-16T14:51:15;100561.19;;;23.12;65.46
75609;BME280;64194;51.044;13.780;2022-10-16T14:55:18;100564.38;;;22.91;63.00
75609;BME280;64194;51.044;13.780;2022-10-16T15:03:22;100570.78;;;22.74;62.92
75609;BME280;64194;51.044;13.780;2022-10-16T15:07:24;100578.25;;;22.80;62.19
75609;BME280;64194;51.044;13.780;2022-10-16T15:11:27;100591.44;;;22.83;62.91
75609;BME280;64194;51.044;13.780;2022-10-16T15:19:35;100590.81;;;22.55;64.13
75609;BME280;64194;51.044;13.780;2022-10-16T15:23:37;100599.03;;;22.37;64.86
75609;BME280;64194;51.044;13.780;2022-10-16T15:27:40;100605.75;;;22.25;65.79
75609;BME280;64194;51.044;13.780;2022-10-16T15:31:41;100607.69;;;22.07;67.06
75609;BME280;64194;51.044;13.780;2022-10-16T15:35:50;100614.06;;;21.98;65.59
75609;BME280;64194;51.044;13.780;2022-10-16T15:39:52;100619.34;;;21.82;66.11
75609;BME280;64194;51.044;13.780;2022-10-16T15:43:54;100619.47;;;21.54;69.57
75609;BME280;64194;51.044;13.780;2022-10-16T15:47:56;100627.81;;;21.25;66.99
75609;BME280;64194;51.044;13.780;2022-10-16T15:51:58;100635.16;;;21.06;68.97
75609;BME280;64194;51.044;13.780;2022-10-16T15:56:06;100633.06;;;20.82;70.03
75609;BME280;64194;51.044;13.780;2022-10-16T16:00:17;100625.25;;;20.79;67.53
75609;BME280;64194;51.044;13.780;2022-10-16T16:04:20;100627.56;;;20.74;66.89
75609;BME280;64194;51.044;13.780;2022-10-16T16:08:41;100643.03;;;20.54;67.13
75609;BME280;64194;51.044;13.780;2022-10-16T16:12:46;100643.69;;;20.38;67.80
75609;BME280;64194;51.044;13.780;2022-10-16T16:16:51;100642.56;;;20.22;68.19
75609;BME280;64194;51.044;13.780;2022-10-16T16:20:52;100647.47;;;19.99;70.72
75609;BME280;64194;51.044;13.780;2022-10-16T16:24:57;100650.94;;;19.72;74.24
75609;BME280;64194;51.044;13.780;2022-10-16T16:28:58;100657.59;;;19.49;75.46
75609;BME280;64194;51.044;13.780;2022-10-16T16:33:00;100673.03;;;19.28;75.99
75609;BME280;64194;51.044;13.780;2022-10-16T16:37:01;100676.56;;;19.09;77.26
75609;BME280;64194;51.044;13.780;2022-10-16T16:41:19;100684.72;;;18.88;78.01
75609;BME280;64194;51.044;13.780;2022-10-16T16:45:21;100696.16;;;18.71;78.15
75609;BME280;64194;51.044;13.780;2022-10-16T16:49:23;100702.16;;;18.54;79.25
75609;BME280;64194;51.044;13.780;2022-10-16T16:53:25;100718.63;;;18.39;79.61
75609;BME280;64194;51.044;13.780;2022-10-16T16:57:26;100718.00;;;18.26;79.61
75609;BME280;64194;51.044;13.780;2022-10-16T17:01:28;100720.03;;;18.13;80.16
75609;BME280;64194;51.044;13.780;2022-10-16T17:05:30;100724.50;;;18.03;80.51
75609;BME280;64194;51.044;13.780;2022-10-16T17:09:32;100732.34;;;17.95;80.80
75609;BME280;64194;51.044;13.780;2022-10-16T17:13:34;100742.56;;;17.80;81.42
75609;BME280;64194;51.044;13.780;2022-10-16T17:17:38;100748.13;;;17.68;81.78
75609;BME280;64194;51.044;13.780;2022-10-16T17:21:42;100745.25;;;17.60;81.93
75609;BME280;64194;51.044;13.780;2022-10-16T17:25:44;100751.47;;;17.49;82.18
75609;BME280;64194;51.044;13.780;2022-10-16T17:29:50;100754.94;;;17.40;82.33
75609;BME280;64194;51.044;13.780;2022-10-16T17:33:52;100760.91;;;17.32;82.73
75609;BME280;64194;51.044;13.780;2022-10-16T17:37:53;100762.16;;;17.28;83.12
75609;BME280;64194;51.044;13.780;2022-10-16T17:41:55;100771.19;;;17.27;82.89
75609;BME280;64194;51.044;13.780;2022-10-16T17:46:01;100766.84;;;17.47;82.64
75609;BME280;64194;51.044;13.780;2022-10-16T17:50:03;100775.56;;;17.39;82.48
75609;BME280;64194;51.044;13.780;2022-10-16T17:54:06;100784.81;;;17.35;82.97
75609;BME280;64194;51.044;13.780;2022-10-16T17:58:07;100792.41;;;17.30;83.18
75609;BME280;64194;51.044;13.780;2022-10-16T18:02:09;100798.53;;;17.21;83.33
75609;BME280;64194;51.044;13.780;2022-10-16T18:06:12;100808.66;;;17.18;82.86
75609;BME280;64194;51.044;13.780;2022-10-16T18:10:13;100816.09;;;17.14;82.64
75609;BME280;64194;51.044;13.780;2022-10-16T18:14:21;100813.41;;;17.14;82.97
75609;BME280;64194;51.044;13.780;2022-10-16T18:18:22;100828.78;;;17.23;83.29
75609;BME280;64194;51.044;13.780;2022-10-16T18:22:31;100824.59;;;17.30;83.12
75609;BME280;64194;51.044;13.780;2022-10-16T18:26:33;100832.34;;;17.24;83.04
75609;BME280;64194;51.044;13.780;2022-10-16T18:30:35;100847.09;;;17.18;83.51
75609;BME280;64194;51.044;13.780;2022-10-16T18:34:37;100844.75;;;17.13;84.02
75609;BME280;64194;51.044;13.780;2022-10-16T18:38:38;100853.44;;;17.06;83.54
75609;BME280;64194;51.044;13.780;2022-10-16T18:42:42;100863.06;;;16.97;83.77
75609;BME280;64194;51.044;13.780;2022-10-16T18:46:44;100863.69;;;16.90;83.75
75609;BME280;64194;51.044;13.780;2022-10-16T18:50:45;100855.13;;;16.85;84.19
75609;BME280;64194;51.044;13.780;2022-10-16T18:54:47;100859.53;;;16.75;84.54
75609;BME280;64194;51.044;13.780;2022-10-16T18:58:49;100856.34;;;16.81;84.97
75609;BME280;64194;51.044;13.780;2022-10-16T19:02:53;100853.44;;;16.84;84.62
75609;BME280;64194;51.044;13.780;2022-10-16T19:06:55;100851.97;;;16.80;84.80
75609;BME280;64194;51.044;13.780;2022-10-16T19:11:23;100843.66;;;16.71;84.61
75609;BME280;64194;51.044;13.780;2022-10-16T19:15:25;100845.25;;;16.74;84.61
75609;BME280;64194;51.044;13.780;2022-10-16T19:19:27;100848.91;;;16.73;84.39
75609;BME280;64194;51.044;13.780;2022-10-16T19:23:28;100860.59;;;16.72;84.54
75609;BME280;64194;51.044;13.780;2022-10-16T19:27:30;100873.53;;;16.67;84.70
75609;BME280;64194;51.044;13.780;2022-10-16T19:31:32;100871.19;;;16.62;85.18
75609;BME280;64194;51.044;13.780;2022-10-16T19:35:34;100878.72;;;16.57;85.26
75609;BME280;64194;51.044;13.780;2022-10-16T19:39:36;100885.56;;;16.61;85.04
75609;BME280;64194;51.044;13.780;2022-10-16T19:43:38;100893.53;;;16.74;84.55
75609;BME280;64194;51.044;13.780;2022-10-16T19:47:40;100894.88;;;16.80;83.94
75609;BME280;64194;51.044;13.780;2022-10-16T19:51:41;100899.75;;;16.75;83.83
75609;BME280;64194;51.044;13.780;2022-10-16T19:55:43;100913.84;;;16.65;84.27
75609;BME280;64194;51.044;13.780;2022-10-16T19:59:46;100901.56;;;16.63;84.30
75609;BME280;64194;51.044;13.780;2022-10-16T20:03:48;100910.47;;;16.63;83.99
75609;BME280;64194;51.044;13.780;2022-10-16T20:07:50;100902.16;;;16.66;83.71
75609;BME280;64194;51.044;13.780;2022-10-16T20:11:52;100903.78;;;16.69;83.23
75609;BME280;64194;51.044;13.780;2022-10-16T20:15:53;100902.44;;;16.75;82.75
75609;BME280;64194;51.044;13.780;2022-10-16T20:19:56;100902.41;;;16.63;83.02
75609;BME280;64194;51.044;13.780;2022-10-16T20:24:00;100908.97;;;16.59;82.60
75609;BME280;64194;51.044;13.780;2022-10-16T20:28:03;100913.28;;;16.49;83.19
75609;BME280;64194;51.044;13.780;2022-10-16T20:32:05;100903.81;;;16.56;82.49
75609;BME280;64194;51.044;13.780;2022-10-16T20:36:15;100913.06;;;16.52;82.26
75609;BME280;64194;51.044;13.780;2022-10-16T20:40:16;100908.75;;;16.62;82.27
75609;BME280;64194;51.044;13.780;2022-10-16T20:44:18;100923.66;;;16.54;82.55
75609;BME280;64194;51.044;13.780;2022-10-16T20:48:19;100920.72;;;16.46;82.87
75609;BME280;64194;51.044;13.780;2022-10-16T20:52:21;100921.84;;;16.54;82.67
75609;BME280;64194;51.044;13.780;2022-10-16T21:01:10;100927.28;;;16.42;83.01
75609;BME280;64194;51.044;13.780;2022-10-16T21:05:12;100939.44;;;16.35;82.91
75609;BME280;64194;51.044;13.780;2022-10-16T21:09:14;100944.16;;;16.31;83.21
75609;BME280;64194;51.044;13.780;2022-10-16T21:13:16;100951.44;;;16.18;83.78
75609;BME280;64194;51.044;13.780;2022-10-16T21:17:18;100955.75;;;16.08;84.18
75609;BME280;64194;51.044;13.780;2022-10-16T21:21:28;100959.09;;;15.99;84.33
75609;BME280;64194;51.044;13.780;2022-10-16T21:25:31;100965.25;;;15.88;84.42
75609;BME280;64194;51.044;13.780;2022-10-16T21:29:33;100968.69;;;15.77;85.79
75609;BME280;64194;51.044;13.780;2022-10-16T21:33:35;100979.97;;;15.70;85.30
75609;BME280;64194;51.044;13.780;2022-10-16T21:37:36;100984.81;;;15.65;85.50
75609;BME280;64194;51.044;13.780;2022-10-16T21:41:39;100977.09;;;15.60;85.78
75609;BME280;64194;51.044;13.780;2022-10-16T21:45:41;100977.31;;;15.57;85.83
75609;BME280;64194;51.044;13.780;2022-10-16T21:49:43;100987.25;;;15.55;85.87
75609;BME280;64194;51.044;13.780;2022-10-16T21:53:45;100982.34;;;15.49;86.29
75609;BME280;64194;51.044;13.780;2022-10-16T21:57:47;100978.16;;;15.45;86.20
75609;BME280;64194;51.044;13.780;2022-10-16T22:01:51;100971.94;;;15.44;86.16
75609;BME280;64194;51.044;13.780;2022-10-16T22:05:53;100977.09;;;15.35;86.27
75609;BME280;64194;51.044;13.780;2022-10-16T22:09:55;100974.31;;;15.24;86.76
75609;BME280;64194;51.044;13.780;2022-10-16T22:13:56;100982.13;;;15.14;87.01
75609;BME280;64194;51.044;13.780;2022-10-16T22:17:58;100973.47;;;15.11;86.90
75609;BME280;64194;51.044;13.780;2022-10-16T22:21:59;100977.28;;;15.06;86.95
75609;BME280;64194;51.044;13.780;2022-10-16T22:26:06;100977.97;;;15.10;87.28
75609;BME280;64194;51.044;13.780;2022-10-16T22:30:09;100980.50;;;15.12;86.83